sensor_id;sensor_type;location;lat;lon;timestamp;P1;durP1;ratioP1;P2;durP2;ratioP2
10170;SDS011;5127;50.922;6.988;2022-07-06T00:02:06;1.17;;;0.90;;
10170;SDS011;5127;50.922;6.988;2022-07-06T00:04:34;1.33;;;0.87;;
10170;SDS011;5127;50.922;6.988;2022-07-06T00:07:01;1.50;;;1.00;;
10170;SDS011;5127;50.922;6.988;2022-07-06T00:09:28;1.43;;;0.93;;
10170;SDS011;5127;50.922;6.988;2022-07-06T00:11:55;1.53;;;0.90;;
10170;SDS011;5127;50.922;6.988;2022-07-06T00:14:23;3.03;;;1.10;;
10170;SDS011;5127;50.922;6.988;2022-07-06T00:16:50;0.93;;;0.73;;
10170;SDS011;5127;50.922;6.988;2022-07-06T00:19:19;1.60;;;1.00;;
10170;SDS011;5127;50.922;6.988;2022-07-06T00:21:46;1.63;;;1.10;;
10170;SDS011;5127;50.922;6.988;2022-07-06T00:24:13;0.90;;;0.90;;
10170;SDS011;5127;50.922;6.988;2022-07-06T00:26:43;2.30;;;0.90;;
10170;SDS011;5127;50.922;6.988;2022-07-06T00:29:11;2.40;;;1.00;;
10170;SDS011;5127;50.922;6.988;2022-07-06T00:31:39;1.87;;;1.03;;
10170;SDS011;5127;50.922;6.988;2022-07-06T00:34:06;1.40;;;1.00;;
10170;SDS011;5127;50.922;6.988;2022-07-06T00:36:35;3.30;;;1.10;;
10170;SDS011;5127;50.922;6.988;2022-07-06T00:39:02;1.37;;;1.00;;
10170;SDS011;5127;50.922;6.988;2022-07-06T00:41:30;1.70;;;1.20;;
10170;SDS011;5127;50.922;6.988;2022-07-06T00:43:57;1.60;;;1.10;;
10170;SDS011;5127;50.922;6.988;2022-07-06T00:46:26;1.23;;;1.07;;
10170;SDS011;5127;50.922;6.988;2022-07-06T00:48:55;1.67;;;1.20;;
10170;SDS011;5127;50.922;6.988;2022-07-06T00:51:25;1.20;;;1.10;;
10170;SDS011;5127;50.922;6.988;2022-07-06T00:53:57;3.07;;;1.30;;
10170;SDS011;5127;50.922;6.988;2022-07-06T00:56:25;1.30;;;1.20;;
10170;SDS011;5127;50.922;6.988;2022-07-06T00:58:54;2.27;;;1.00;;
10170;SDS011;5127;50.922;6.988;2022-07-06T01:01:21;0.90;;;0.90;;
10170;SDS011;5127;50.922;6.988;2022-07-06T01:03:48;2.20;;;1.50;;
10170;SDS011;5127;50.922;6.988;2022-07-06T01:06:15;1.60;;;1.13;;
10170;SDS011;5127;50.922;6.988;2022-07-06T01:08:43;1.50;;;1.40;;
10170;SDS011;5127;50.922;6.988;2022-07-06T01:11:11;1.33;;;1.03;;
10170;SDS011;5127;50.922;6.988;2022-07-06T01:13:39;1.50;;;1.10;;
10170;SDS011;5127;50.922;6.988;2022-07-06T01:16:08;2.33;;;1.07;;
10170;SDS011;5127;50.922;6.988;2022-07-06T01:18:35;2.33;;;1.20;;
10170;SDS011;5127;50.922;6.988;2022-07-06T01:21:06;1.67;;;1.10;;
10170;SDS011;5127;50.922;6.988;2022-07-06T01:23:38;1.53;;;1.17;;
10170;SDS011;5127;50.922;6.988;2022-07-06T01:26:08;1.93;;;1.17;;
10170;SDS011;5127;50.922;6.988;2022-07-06T01:28:36;1.83;;;1.30;;
10170;SDS011;5127;50.922;6.988;2022-07-06T01:31:04;1.27;;;1.13;;
10170;SDS011;5127;50.922;6.988;2022-07-06T01:33:31;1.80;;;1.00;;
10170;SDS011;5127;50.922;6.988;2022-07-06T01:35:58;1.93;;;1.33;;
10170;SDS011;5127;50.922;6.988;2022-07-06T01:38:27;1.50;;;1.40;;
10170;SDS011;5127;50.922;6.988;2022-07-06T01:40:54;1.80;;;1.30;;
10170;SDS011;5127;50.922;6.988;2022-07-06T01:43:21;2.13;;;1.37;;
10170;SDS011;5127;50.922;6.988;2022-07-06T01:45:49;1.17;;;1.00;;
10170;SDS011;5127;50.922;6.988;2022-07-06T01:48:16;2.73;;;1.30;;
10170;SDS011;5127;50.922;6.988;2022-07-06T01:50:43;1.80;;;1.40;;
10170;SDS011;5127;50.922;6.988;2022-07-06T01:53:10;2.53;;;1.37;;
10170;SDS011;5127;50.922;6.988;2022-07-06T01:55:39;1.93;;;1.30;;
10170;SDS011;5127;50.922;6.988;2022-07-06T01:58:07;2.57;;;1.40;;
10170;SDS011;5127;50.922;6.988;2022-07-06T02:00:34;1.73;;;1.37;;
10170;SDS011;5127;50.922;6.988;2022-07-06T02:03:02;1.87;;;1.10;;
10170;SDS011;5127;50.922;6.988;2022-07-06T02:05:29;2.07;;;1.20;;
10170;SDS011;5127;50.922;6.988;2022-07-06T02:07:56;1.40;;;1.30;;
10170;SDS011;5127;50.922;6.988;2022-07-06T02:10:24;1.80;;;1.40;;
10170;SDS011;5127;50.922;6.988;2022-07-06T02:12:52;2.77;;;1.50;;
10170;SDS011;5127;50.922;6.988;2022-07-06T02:15:19;1.53;;;1.30;;
10170;SDS011;5127;50.922;6.988;2022-07-06T02:17:47;2.67;;;1.60;;
10170;SDS011;5127;50.922;6.988;2022-07-06T02:20:14;2.03;;;1.37;;
10170;SDS011;5127;50.922;6.988;2022-07-06T02:22:41;2.53;;;1.33;;
10170;SDS011;5127;50.922;6.988;2022-07-06T02:25:09;2.33;;;1.30;;
10170;SDS011;5127;50.922;6.988;2022-07-06T02:27:37;1.43;;;1.27;;
10170;SDS011;5127;50.922;6.988;2022-07-06T02:30:09;3.27;;;1.20;;
10170;SDS011;5127;50.922;6.988;2022-07-06T02:32:37;2.23;;;1.40;;
10170;SDS011;5127;50.922;6.988;2022-07-06T02:35:05;1.83;;;1.43;;
10170;SDS011;5127;50.922;6.988;2022-07-06T02:37:32;1.40;;;1.20;;
10170;SDS011;5127;50.922;6.988;2022-07-06T02:40:00;1.53;;;1.20;;
10170;SDS011;5127;50.922;6.988;2022-07-06T02:42:28;1.37;;;1.20;;
10170;SDS011;5127;50.922;6.988;2022-07-06T02:44:56;1.40;;;1.20;;
10170;SDS011;5127;50.922;6.988;2022-07-06T02:47:25;2.30;;;1.50;;
10170;SDS011;5127;50.922;6.988;2022-07-06T02:49:53;1.40;;;1.20;;
10170;SDS011;5127;50.922;6.988;2022-07-06T02:52:21;1.30;;;1.20;;
10170;SDS011;5127;50.922;6.988;2022-07-06T02:54:48;2.23;;;1.60;;
10170;SDS011;5127;50.922;6.988;2022-07-06T02:57:17;1.40;;;1.30;;
10170;SDS011;5127;50.922;6.988;2022-07-06T02:59:44;1.83;;;1.40;;
10170;SDS011;5127;50.922;6.988;2022-07-06T03:02:12;2.63;;;1.13;;
10170;SDS011;5127;50.922;6.988;2022-07-06T03:04:41;2.33;;;1.30;;
10170;SDS011;5127;50.922;6.988;2022-07-06T03:07:09;1.60;;;1.50;;
10170;SDS011;5127;50.922;6.988;2022-07-06T03:09:37;1.43;;;1.20;;
10170;SDS011;5127;50.922;6.988;2022-07-06T03:12:04;1.37;;;1.20;;
10170;SDS011;5127;50.922;6.988;2022-07-06T03:14:34;1.93;;;1.47;;
10170;SDS011;5127;50.922;6.988;2022-07-06T03:17:01;1.60;;;1.50;;
10170;SDS011;5127;50.922;6.988;2022-07-06T03:19:29;3.13;;;1.50;;
10170;SDS011;5127;50.922;6.988;2022-07-06T03:21:58;1.30;;;1.20;;
10170;SDS011;5127;50.922;6.988;2022-07-06T03:24:25;2.03;;;1.33;;
10170;SDS011;5127;50.922;6.988;2022-07-06T03:26:53;1.40;;;1.30;;
10170;SDS011;5127;50.922;6.988;2022-07-06T03:29:20;2.23;;;1.40;;
10170;SDS011;5127;50.922;6.988;2022-07-06T03:31:48;2.33;;;1.50;;
10170;SDS011;5127;50.922;6.988;2022-07-06T03:34:15;1.87;;;1.37;;
10170;SDS011;5127;50.922;6.988;2022-07-06T03:36:42;2.33;;;1.50;;
10170;SDS011;5127;50.922;6.988;2022-07-06T03:39:12;2.50;;;1.50;;
10170;SDS011;5127;50.922;6.988;2022-07-06T03:41:40;3.53;;;1.80;;
10170;SDS011;5127;50.922;6.988;2022-07-06T03:44:08;2.60;;;1.37;;
10170;SDS011;5127;50.922;6.988;2022-07-06T03:46:36;1.93;;;1.10;;
10170;SDS011;5127;50.922;6.988;2022-07-06T03:49:04;2.40;;;1.30;;
10170;SDS011;5127;50.922;6.988;2022-07-06T03:51:31;1.50;;;1.40;;
10170;SDS011;5127;50.922;6.988;2022-07-06T03:53:58;1.57;;;1.43;;
10170;SDS011;5127;50.922;6.988;2022-07-06T03:56:27;2.13;;;1.60;;
10170;SDS011;5127;50.922;6.988;2022-07-06T03:58:58;3.10;;;1.50;;
10170;SDS011;5127;50.922;6.988;2022-07-06T04:01:28;4.73;;;1.60;;
10170;SDS011;5127;50.922;6.988;2022-07-06T04:03:57;2.03;;;1.60;;
10170;SDS011;5127;50.922;6.988;2022-07-06T04:06:25;1.57;;;1.40;;
10170;SDS011;5127;50.922;6.988;2022-07-06T04:08:52;1.47;;;1.33;;
10170;SDS011;5127;50.922;6.988;2022-07-06T04:11:19;1.53;;;1.43;;
10170;SDS011;5127;50.922;6.988;2022-07-06T04:13:48;2.17;;;1.67;;
10170;SDS011;5127;50.922;6.988;2022-07-06T04:16:16;2.37;;;1.40;;
10170;SDS011;5127;50.922;6.988;2022-07-06T04:18:44;1.27;;;1.17;;
10170;SDS011;5127;50.922;6.988;2022-07-06T04:21:11;1.60;;;1.40;;
10170;SDS011;5127;50.922;6.988;2022-07-06T04:23:38;1.93;;;1.70;;
10170;SDS011;5127;50.922;6.988;2022-07-06T04:26:08;2.27;;;1.33;;
10170;SDS011;5127;50.922;6.988;2022-07-06T04:28:37;1.60;;;1.37;;
10170;SDS011;5127;50.922;6.988;2022-07-06T04:31:06;1.53;;;1.43;;
10170;SDS011;5127;50.922;6.988;2022-07-06T04:33:34;4.57;;;1.70;;
10170;SDS011;5127;50.922;6.988;2022-07-06T04:36:01;1.90;;;1.50;;
10170;SDS011;5127;50.922;6.988;2022-07-06T04:38:36;3.93;;;1.37;;
10170;SDS011;5127;50.922;6.988;2022-07-06T04:41:06;2.07;;;1.70;;
10170;SDS011;5127;50.922;6.988;2022-07-06T04:43:33;3.43;;;1.50;;
10170;SDS011;5127;50.922;6.988;2022-07-06T04:46:00;4.10;;;1.60;;
10170;SDS011;5127;50.922;6.988;2022-07-06T04:48:30;4.20;;;1.90;;
10170;SDS011;5127;50.922;6.988;2022-07-06T04:51:02;4.57;;;2.10;;
10170;SDS011;5127;50.922;6.988;2022-07-06T04:53:30;4.77;;;2.40;;
10170;SDS011;5127;50.922;6.988;2022-07-06T04:55:57;5.43;;;2.13;;
10170;SDS011;5127;50.922;6.988;2022-07-06T04:58:26;4.47;;;2.37;;
10170;SDS011;5127;50.922;6.988;2022-07-06T05:00:54;2.57;;;1.83;;
10170;SDS011;5127;50.922;6.988;2022-07-06T05:03:23;4.00;;;1.73;;
10170;SDS011;5127;50.922;6.988;2022-07-06T05:05:51;4.97;;;2.20;;
10170;SDS011;5127;50.922;6.988;2022-07-06T05:08:19;4.10;;;1.70;;
10170;SDS011;5127;50.922;6.988;2022-07-06T05:10:47;4.97;;;2.30;;
10170;SDS011;5127;50.922;6.988;2022-07-06T05:13:15;3.40;;;2.00;;
10170;SDS011;5127;50.922;6.988;2022-07-06T05:15:43;2.50;;;1.90;;
10170;SDS011;5127;50.922;6.988;2022-07-06T05:18:10;2.30;;;1.67;;
10170;SDS011;5127;50.922;6.988;2022-07-06T05:20:39;2.30;;;1.70;;
10170;SDS011;5127;50.922;6.988;2022-07-06T05:23:07;1.80;;;1.70;;
10170;SDS011;5127;50.922;6.988;2022-07-06T05:25:35;2.30;;;1.47;;
10170;SDS011;5127;50.922;6.988;2022-07-06T05:28:03;3.67;;;1.73;;
10170;SDS011;5127;50.922;6.988;2022-07-06T05:30:30;2.03;;;1.50;;
10170;SDS011;5127;50.922;6.988;2022-07-06T05:32:58;2.77;;;1.60;;
10170;SDS011;5127;50.922;6.988;2022-07-06T05:35:26;2.43;;;1.30;;
10170;SDS011;5127;50.922;6.988;2022-07-06T05:37:54;3.33;;;1.40;;
10170;SDS011;5127;50.922;6.988;2022-07-06T05:40:22;1.83;;;1.17;;
10170;SDS011;5127;50.922;6.988;2022-07-06T05:42:50;1.67;;;1.47;;
10170;SDS011;5127;50.922;6.988;2022-07-06T05:45:19;4.03;;;1.50;;
10170;SDS011;5127;50.922;6.988;2022-07-06T05:47:48;1.53;;;1.43;;
10170;SDS011;5127;50.922;6.988;2022-07-06T05:50:34;2.60;;;1.40;;
10170;SDS011;5127;50.922;6.988;2022-07-06T05:53:02;1.13;;;1.03;;
10170;SDS011;5127;50.922;6.988;2022-07-06T05:55:32;2.90;;;1.30;;
10170;SDS011;5127;50.922;6.988;2022-07-06T05:58:01;2.20;;;1.30;;
10170;SDS011;5127;50.922;6.988;2022-07-06T06:00:30;2.93;;;1.20;;
10170;SDS011;5127;50.922;6.988;2022-07-06T06:03:03;1.50;;;1.17;;
10170;SDS011;5127;50.922;6.988;2022-07-06T06:05:30;2.83;;;1.27;;
10170;SDS011;5127;50.922;6.988;2022-07-06T06:08:03;3.10;;;1.20;;
10170;SDS011;5127;50.922;6.988;2022-07-06T06:10:32;1.83;;;1.30;;
10170;SDS011;5127;50.922;6.988;2022-07-06T06:13:02;2.40;;;1.10;;
10170;SDS011;5127;50.922;6.988;2022-07-06T06:15:31;2.23;;;1.20;;
10170;SDS011;5127;50.922;6.988;2022-07-06T06:17:58;2.13;;;1.10;;
10170;SDS011;5127;50.922;6.988;2022-07-06T06:20:25;1.53;;;0.93;;
10170;SDS011;5127;50.922;6.988;2022-07-06T06:22:54;2.07;;;1.20;;
10170;SDS011;5127;50.922;6.988;2022-07-06T06:25:27;1.90;;;1.10;;
10170;SDS011;5127;50.922;6.988;2022-07-06T06:27:57;4.55;;;1.00;;
10170;SDS011;5127;50.922;6.988;2022-07-06T06:30:24;2.00;;;0.90;;
10170;SDS011;5127;50.922;6.988;2022-07-06T06:33:03;1.93;;;0.90;;
10170;SDS011;5127;50.922;6.988;2022-07-06T06:35:34;0.90;;;0.70;;
10170;SDS011;5127;50.922;6.988;2022-07-06T06:38:02;2.53;;;0.80;;
10170;SDS011;5127;50.922;6.988;2022-07-06T06:40:29;1.33;;;0.70;;
10170;SDS011;5127;50.922;6.988;2022-07-06T06:42:58;1.20;;;0.70;;
10170;SDS011;5127;50.922;6.988;2022-07-06T06:45:27;1.00;;;0.90;;
10170;SDS011;5127;50.922;6.988;2022-07-06T06:47:55;1.45;;;0.77;;
10170;SDS011;5127;50.922;6.988;2022-07-06T06:50:22;2.70;;;1.00;;
10170;SDS011;5127;50.922;6.988;2022-07-06T06:52:49;1.00;;;0.90;;
10170;SDS011;5127;50.922;6.988;2022-07-06T06:55:17;5.25;;;1.23;;
10170;SDS011;5127;50.922;6.988;2022-07-06T06:57:44;2.38;;;0.70;;
10170;SDS011;5127;50.922;6.988;2022-07-06T07:00:13;1.48;;;0.90;;
10170;SDS011;5127;50.922;6.988;2022-07-06T07:02:41;1.98;;;0.90;;
10170;SDS011;5127;50.922;6.988;2022-07-06T07:05:08;1.73;;;0.80;;
10170;SDS011;5127;50.922;6.988;2022-07-06T07:07:36;2.20;;;0.90;;
10170;SDS011;5127;50.922;6.988;2022-07-06T07:10:03;1.48;;;0.60;;
10170;SDS011;5127;50.922;6.988;2022-07-06T07:12:31;0.50;;;0.50;;
10170;SDS011;5127;50.922;6.988;2022-07-06T07:14:59;1.13;;;0.60;;
10170;SDS011;5127;50.922;6.988;2022-07-06T07:17:28;1.25;;;0.65;;
10170;SDS011;5127;50.922;6.988;2022-07-06T07:19:55;1.25;;;0.60;;
10170;SDS011;5127;50.922;6.988;2022-07-06T07:22:23;0.80;;;0.47;;
10170;SDS011;5127;50.922;6.988;2022-07-06T07:24:51;0.50;;;0.50;;
10170;SDS011;5127;50.922;6.988;2022-07-06T07:27:18;1.55;;;0.70;;
10170;SDS011;5127;50.922;6.988;2022-07-06T07:29:45;1.33;;;0.65;;
10170;SDS011;5127;50.922;6.988;2022-07-06T07:32:12;1.20;;;0.60;;
10170;SDS011;5127;50.922;6.988;2022-07-06T07:34:41;3.70;;;0.70;;
10170;SDS011;5127;50.922;6.988;2022-07-06T07:37:08;1.73;;;0.60;;
10170;SDS011;5127;50.922;6.988;2022-07-06T07:39:36;0.77;;;0.52;;
10170;SDS011;5127;50.922;6.988;2022-07-06T07:42:03;2.20;;;0.93;;
10170;SDS011;5127;50.922;6.988;2022-07-06T07:44:31;1.00;;;0.60;;
10170;SDS011;5127;50.922;6.988;2022-07-06T07:46:58;0.63;;;0.63;;
10170;SDS011;5127;50.922;6.988;2022-07-06T07:49:25;1.33;;;0.40;;
10170;SDS011;5127;50.922;6.988;2022-07-06T07:51:54;0.75;;;0.43;;
10170;SDS011;5127;50.922;6.988;2022-07-06T07:54:21;0.95;;;0.50;;
10170;SDS011;5127;50.922;6.988;2022-07-06T07:56:49;2.40;;;0.50;;
10170;SDS011;5127;50.922;6.988;2022-07-06T07:59:16;3.28;;;0.63;;
10170;SDS011;5127;50.922;6.988;2022-07-06T08:01:43;0.60;;;0.50;;
10170;SDS011;5127;50.922;6.988;2022-07-06T08:04:10;0.65;;;0.50;;
10170;SDS011;5127;50.922;6.988;2022-07-06T08:06:38;1.85;;;0.57;;
10170;SDS011;5127;50.922;6.988;2022-07-06T08:09:06;0.55;;;0.43;;
10170;SDS011;5127;50.922;6.988;2022-07-06T08:11:33;0.90;;;0.40;;
10170;SDS011;5127;50.922;6.988;2022-07-06T08:14:01;1.10;;;0.60;;
10170;SDS011;5127;50.922;6.988;2022-07-06T08:16:29;0.85;;;0.40;;
10170;SDS011;5127;50.922;6.988;2022-07-06T08:18:57;1.58;;;0.70;;
10170;SDS011;5127;50.922;6.988;2022-07-06T08:21:24;2.17;;;0.60;;
10170;SDS011;5127;50.922;6.988;2022-07-06T08:23:52;0.45;;;0.25;;
10170;SDS011;5127;50.922;6.988;2022-07-06T08:26:21;1.17;;;0.52;;
10170;SDS011;5127;50.922;6.988;2022-07-06T08:28:49;0.55;;;0.40;;
10170;SDS011;5127;50.922;6.988;2022-07-06T08:31:16;0.65;;;0.65;;
10170;SDS011;5127;50.922;6.988;2022-07-06T08:33:44;2.47;;;0.70;;
10170;SDS011;5127;50.922;6.988;2022-07-06T08:36:12;1.48;;;0.70;;
10170;SDS011;5127;50.922;6.988;2022-07-06T08:38:39;0.95;;;0.60;;
10170;SDS011;5127;50.922;6.988;2022-07-06T08:41:06;1.20;;;0.60;;
10170;SDS011;5127;50.922;6.988;2022-07-06T08:43:35;0.68;;;0.50;;
10170;SDS011;5127;50.922;6.988;2022-07-06T08:46:03;0.70;;;0.60;;
10170;SDS011;5127;50.922;6.988;2022-07-06T08:48:31;1.58;;;0.60;;
10170;SDS011;5127;50.922;6.988;2022-07-06T08:51:03;1.00;;;0.43;;
10170;SDS011;5127;50.922;6.988;2022-07-06T08:53:31;1.35;;;0.60;;
10170;SDS011;5127;50.922;6.988;2022-07-06T08:55:58;2.05;;;0.50;;
10170;SDS011;5127;50.922;6.988;2022-07-06T08:58:26;2.00;;;0.55;;
10170;SDS011;5127;50.922;6.988;2022-07-06T09:00:55;1.48;;;0.50;;
10170;SDS011;5127;50.922;6.988;2022-07-06T09:03:23;0.40;;;0.40;;
10170;SDS011;5127;50.922;6.988;2022-07-06T09:05:52;0.70;;;0.50;;
10170;SDS011;5127;50.922;6.988;2022-07-06T09:08:22;0.50;;;0.40;;
10170;SDS011;5127;50.922;6.988;2022-07-06T09:10:54;0.93;;;0.43;;
10170;SDS011;5127;50.922;6.988;2022-07-06T09:13:21;0.32;;;0.32;;
10170;SDS011;5127;50.922;6.988;2022-07-06T09:15:48;1.05;;;0.38;;
10170;SDS011;5127;50.922;6.988;2022-07-06T09:18:17;1.40;;;0.80;;
10170;SDS011;5127;50.922;6.988;2022-07-06T09:20:44;1.38;;;0.70;;
10170;SDS011;5127;50.922;6.988;2022-07-06T09:23:14;2.10;;;0.65;;
10170;SDS011;5127;50.922;6.988;2022-07-06T09:25:42;1.00;;;0.60;;
10170;SDS011;5127;50.922;6.988;2022-07-06T09:28:15;0.47;;;0.40;;
10170;SDS011;5127;50.922;6.988;2022-07-06T09:30:42;0.88;;;0.40;;
10170;SDS011;5127;50.922;6.988;2022-07-06T09:33:09;0.40;;;0.40;;
10170;SDS011;5127;50.922;6.988;2022-07-06T09:35:39;0.85;;;0.57;;
10170;SDS011;5127;50.922;6.988;2022-07-06T09:38:08;1.55;;;0.60;;
10170;SDS011;5127;50.922;6.988;2022-07-06T09:40:37;3.70;;;0.70;;
10170;SDS011;5127;50.922;6.988;2022-07-06T09:43:09;0.80;;;0.50;;
10170;SDS011;5127;50.922;6.988;2022-07-06T09:45:38;1.25;;;0.63;;
10170;SDS011;5127;50.922;6.988;2022-07-06T09:48:07;0.80;;;0.60;;
10170;SDS011;5127;50.922;6.988;2022-07-06T09:50:41;1.73;;;0.80;;
10170;SDS011;5127;50.922;6.988;2022-07-06T09:53:10;0.63;;;0.57;;
10170;SDS011;5127;50.922;6.988;2022-07-06T09:55:37;1.05;;;0.47;;
10170;SDS011;5127;50.922;6.988;2022-07-06T09:58:05;0.82;;;0.50;;
10170;SDS011;5127;50.922;6.988;2022-07-06T10:00:32;1.65;;;0.50;;
10170;SDS011;5127;50.922;6.988;2022-07-06T10:02:59;0.93;;;0.50;;
10170;SDS011;5127;50.922;6.988;2022-07-06T10:05:27;0.95;;;0.52;;
10170;SDS011;5127;50.922;6.988;2022-07-06T10:07:58;0.55;;;0.30;;
10170;SDS011;5127;50.922;6.988;2022-07-06T10:10:26;1.25;;;0.40;;
10170;SDS011;5127;50.922;6.988;2022-07-06T10:12:56;0.47;;;0.30;;
10170;SDS011;5127;50.922;6.988;2022-07-06T10:15:24;1.65;;;0.60;;
10170;SDS011;5127;50.922;6.988;2022-07-06T10:17:53;1.10;;;0.65;;
10170;SDS011;5127;50.922;6.988;2022-07-06T10:20:22;1.27;;;0.50;;
10170;SDS011;5127;50.922;6.988;2022-07-06T10:22:49;1.00;;;0.50;;
10170;SDS011;5127;50.922;6.988;2022-07-06T10:25:18;0.80;;;0.50;;
10170;SDS011;5127;50.922;6.988;2022-07-06T10:27:46;1.10;;;0.57;;
10170;SDS011;5127;50.922;6.988;2022-07-06T10:30:15;0.50;;;0.40;;
10170;SDS011;5127;50.922;6.988;2022-07-06T10:32:44;1.90;;;0.50;;
10170;SDS011;5127;50.922;6.988;2022-07-06T10:35:13;0.77;;;0.50;;
10170;SDS011;5127;50.922;6.988;2022-07-06T10:37:41;1.63;;;0.68;;
10170;SDS011;5127;50.922;6.988;2022-07-06T10:40:15;1.05;;;0.40;;
10170;SDS011;5127;50.922;6.988;2022-07-06T10:43:02;0.50;;;0.50;;
10170;SDS011;5127;50.922;6.988;2022-07-06T10:48:17;2.17;;;1.70;;
10170;SDS011;5127;50.922;6.988;2022-07-06T10:50:47;1.13;;;1.00;;
10170;SDS011;5127;50.922;6.988;2022-07-06T10:53:16;1.45;;;0.82;;
10170;SDS011;5127;50.922;6.988;2022-07-06T10:55:47;0.57;;;0.57;;
10170;SDS011;5127;50.922;6.988;2022-07-06T11:01:08;1.38;;;0.70;;
10170;SDS011;5127;50.922;6.988;2022-07-06T11:03:38;2.00;;;0.60;;
10170;SDS011;5127;50.922;6.988;2022-07-06T11:06:08;1.33;;;0.68;;
10170;SDS011;5127;50.922;6.988;2022-07-06T11:08:48;1.27;;;0.40;;
10170;SDS011;5127;50.922;6.988;2022-07-06T11:11:19;0.75;;;0.50;;
10170;SDS011;5127;50.922;6.988;2022-07-06T11:13:50;0.90;;;0.50;;
10170;SDS011;5127;50.922;6.988;2022-07-06T11:16:19;0.73;;;0.50;;
10170;SDS011;5127;50.922;6.988;2022-07-06T11:18:49;0.80;;;0.50;;
10170;SDS011;5127;50.922;6.988;2022-07-06T11:21:32;1.67;;;0.80;;
10170;SDS011;5127;50.922;6.988;2022-07-06T11:24:00;1.05;;;0.45;;
10170;SDS011;5127;50.922;6.988;2022-07-06T11:26:28;0.95;;;0.65;;
10170;SDS011;5127;50.922;6.988;2022-07-06T11:28:59;1.92;;;0.68;;
10170;SDS011;5127;50.922;6.988;2022-07-06T11:31:26;1.67;;;0.60;;
10170;SDS011;5127;50.922;6.988;2022-07-06T11:33:54;3.13;;;0.60;;
10170;SDS011;5127;50.922;6.988;2022-07-06T11:36:21;1.45;;;0.77;;
10170;SDS011;5127;50.922;6.988;2022-07-06T11:38:49;1.27;;;0.60;;
10170;SDS011;5127;50.922;6.988;2022-07-06T11:41:17;1.02;;;0.80;;
10170;SDS011;5127;50.922;6.988;2022-07-06T11:43:45;0.50;;;0.43;;
10170;SDS011;5127;50.922;6.988;2022-07-06T11:46:25;0.75;;;0.52;;
10170;SDS011;5127;50.922;6.988;2022-07-06T11:48:53;1.60;;;0.57;;
10170;SDS011;5127;50.922;6.988;2022-07-06T11:51:23;1.33;;;0.60;;
10170;SDS011;5127;50.922;6.988;2022-07-06T11:53:52;0.50;;;0.50;;
10170;SDS011;5127;50.922;6.988;2022-07-06T11:56:20;1.17;;;1.08;;
10170;SDS011;5127;50.922;6.988;2022-07-06T11:58:51;2.28;;;0.88;;
10170;SDS011;5127;50.922;6.988;2022-07-06T12:01:20;1.27;;;0.68;;
10170;SDS011;5127;50.922;6.988;2022-07-06T12:03:50;1.23;;;0.80;;
10170;SDS011;5127;50.922;6.988;2022-07-06T12:06:18;1.70;;;1.10;;
10170;SDS011;5127;50.922;6.988;2022-07-06T12:08:47;0.95;;;0.63;;
10170;SDS011;5127;50.922;6.988;2022-07-06T12:11:17;0.88;;;0.80;;
10170;SDS011;5127;50.922;6.988;2022-07-06T12:13:47;0.68;;;0.50;;
10170;SDS011;5127;50.922;6.988;2022-07-06T12:16:15;1.63;;;0.50;;
10170;SDS011;5127;50.922;6.988;2022-07-06T12:18:43;0.55;;;0.32;;
10170;SDS011;5127;50.922;6.988;2022-07-06T12:21:13;1.38;;;0.63;;
10170;SDS011;5127;50.922;6.988;2022-07-06T12:23:43;0.68;;;0.57;;
10170;SDS011;5127;50.922;6.988;2022-07-06T12:26:11;1.95;;;0.60;;
10170;SDS011;5127;50.922;6.988;2022-07-06T12:28:40;0.65;;;0.60;;
10170;SDS011;5127;50.922;6.988;2022-07-06T12:31:08;0.60;;;0.40;;
10170;SDS011;5127;50.922;6.988;2022-07-06T12:33:36;2.08;;;0.60;;
10170;SDS011;5127;50.922;6.988;2022-07-06T12:36:12;1.40;;;0.57;;
10170;SDS011;5127;50.922;6.988;2022-07-06T12:38:45;0.85;;;0.60;;
10170;SDS011;5127;50.922;6.988;2022-07-06T12:41:26;1.23;;;0.57;;
10170;SDS011;5127;50.922;6.988;2022-07-06T12:44:00;1.75;;;0.75;;
10170;SDS011;5127;50.922;6.988;2022-07-06T12:46:29;2.42;;;0.68;;
10170;SDS011;5127;50.922;6.988;2022-07-06T12:48:58;1.20;;;0.55;;
10170;SDS011;5127;50.922;6.988;2022-07-06T12:51:28;1.10;;;0.40;;
10170;SDS011;5127;50.922;6.988;2022-07-06T12:54:11;0.63;;;0.60;;
10170;SDS011;5127;50.922;6.988;2022-07-06T12:59:25;0.75;;;0.70;;
10170;SDS011;5127;50.922;6.988;2022-07-06T13:01:53;1.48;;;0.60;;
10170;SDS011;5127;50.922;6.988;2022-07-06T13:04:22;0.45;;;0.45;;
10170;SDS011;5127;50.922;6.988;2022-07-06T13:06:53;1.05;;;0.50;;
10170;SDS011;5127;50.922;6.988;2022-07-06T13:09:21;1.63;;;0.63;;
10170;SDS011;5127;50.922;6.988;2022-07-06T13:11:48;0.77;;;0.52;;
10170;SDS011;5127;50.922;6.988;2022-07-06T13:14:17;1.25;;;0.52;;
10170;SDS011;5127;50.922;6.988;2022-07-06T13:16:45;1.20;;;0.90;;
10170;SDS011;5127;50.922;6.988;2022-07-06T13:19:14;1.83;;;0.80;;
10170;SDS011;5127;50.922;6.988;2022-07-06T13:21:41;1.73;;;0.70;;
10170;SDS011;5127;50.922;6.988;2022-07-06T13:24:11;2.65;;;0.95;;
10170;SDS011;5127;50.922;6.988;2022-07-06T13:26:39;2.78;;;0.88;;
10170;SDS011;5127;50.922;6.988;2022-07-06T13:29:06;1.05;;;0.63;;
10170;SDS011;5127;50.922;6.988;2022-07-06T13:31:36;0.88;;;0.68;;
10170;SDS011;5127;50.922;6.988;2022-07-06T13:34:04;1.85;;;0.80;;
10170;SDS011;5127;50.922;6.988;2022-07-06T13:36:33;0.85;;;0.60;;
10170;SDS011;5127;50.922;6.988;2022-07-06T13:39:00;1.77;;;0.80;;
10170;SDS011;5127;50.922;6.988;2022-07-06T13:41:29;3.10;;;1.00;;
10170;SDS011;5127;50.922;6.988;2022-07-06T13:43:57;1.92;;;0.57;;
10170;SDS011;5127;50.922;6.988;2022-07-06T13:46:26;0.75;;;0.50;;
10170;SDS011;5127;50.922;6.988;2022-07-06T13:48:53;1.25;;;0.52;;
10170;SDS011;5127;50.922;6.988;2022-07-06T13:51:22;1.38;;;0.70;;
10170;SDS011;5127;50.922;6.988;2022-07-06T13:53:49;1.15;;;0.63;;
10170;SDS011;5127;50.922;6.988;2022-07-06T13:56:17;3.13;;;0.88;;
10170;SDS011;5127;50.922;6.988;2022-07-06T13:58:45;2.67;;;0.70;;
10170;SDS011;5127;50.922;6.988;2022-07-06T14:01:13;1.48;;;0.98;;
10170;SDS011;5127;50.922;6.988;2022-07-06T14:03:40;2.88;;;0.80;;
10170;SDS011;5127;50.922;6.988;2022-07-06T14:06:07;0.98;;;0.60;;
10170;SDS011;5127;50.922;6.988;2022-07-06T14:08:36;2.25;;;0.90;;
10170;SDS011;5127;50.922;6.988;2022-07-06T14:11:05;2.15;;;0.60;;
10170;SDS011;5127;50.922;6.988;2022-07-06T14:13:33;0.60;;;0.50;;
10170;SDS011;5127;50.922;6.988;2022-07-06T14:16:03;0.98;;;0.65;;
10170;SDS011;5127;50.922;6.988;2022-07-06T14:18:31;2.20;;;0.90;;
10170;SDS011;5127;50.922;6.988;2022-07-06T14:20:58;0.95;;;0.50;;
10170;SDS011;5127;50.922;6.988;2022-07-06T14:23:26;1.35;;;0.57;;
10170;SDS011;5127;50.922;6.988;2022-07-06T14:25:55;0.73;;;0.65;;
10170;SDS011;5127;50.922;6.988;2022-07-06T14:28:22;1.73;;;0.73;;
10170;SDS011;5127;50.922;6.988;2022-07-06T14:30:50;1.77;;;0.60;;
10170;SDS011;5127;50.922;6.988;2022-07-06T14:33:19;3.40;;;0.93;;
10170;SDS011;5127;50.922;6.988;2022-07-06T14:35:47;0.60;;;0.60;;
10170;SDS011;5127;50.922;6.988;2022-07-06T14:38:16;2.55;;;0.85;;
10170;SDS011;5127;50.922;6.988;2022-07-06T14:40:45;2.33;;;0.60;;
10170;SDS011;5127;50.922;6.988;2022-07-06T14:43:14;0.75;;;0.50;;
10170;SDS011;5127;50.922;6.988;2022-07-06T14:45:42;1.27;;;0.60;;
10170;SDS011;5127;50.922;6.988;2022-07-06T14:48:11;1.80;;;0.80;;
10170;SDS011;5127;50.922;6.988;2022-07-06T14:50:40;1.50;;;0.70;;
10170;SDS011;5127;50.922;6.988;2022-07-06T14:53:08;1.40;;;0.60;;
10170;SDS011;5127;50.922;6.988;2022-07-06T14:55:35;0.95;;;0.45;;
10170;SDS011;5127;50.922;6.988;2022-07-06T14:58:02;1.25;;;0.55;;
10170;SDS011;5127;50.922;6.988;2022-07-06T15:00:29;1.33;;;0.80;;
10170;SDS011;5127;50.922;6.988;2022-07-06T15:02:57;7.80;;;0.90;;
10170;SDS011;5127;50.922;6.988;2022-07-06T15:05:24;1.05;;;0.80;;
10170;SDS011;5127;50.922;6.988;2022-07-06T15:07:53;1.27;;;0.80;;
10170;SDS011;5127;50.922;6.988;2022-07-06T15:10:20;0.80;;;0.70;;
10170;SDS011;5127;50.922;6.988;2022-07-06T15:12:47;1.30;;;0.80;;
10170;SDS011;5127;50.922;6.988;2022-07-06T15:15:15;5.47;;;1.20;;
10170;SDS011;5127;50.922;6.988;2022-07-06T15:17:42;1.15;;;0.90;;